sensor_id;sensor_type;location;lat;lon;timestamp;P1;durP1;ratioP1;P2;durP2;ratioP2
7879;SDS011;3985;49.366;2.738;2023-05-10T00:36:06;2.00;;;2.00;;
7879;SDS011;3985;49.366;2.738;2023-05-10T00:38:33;2.00;;;2.00;;
7879;SDS011;3985;49.366;2.738;2023-05-10T00:41:00;2.25;;;2.25;;
7879;SDS011;3985;49.366;2.738;2023-05-10T00:43:31;1.25;;;1.25;;
7879;SDS011;3985;49.366;2.738;2023-05-10T00:45:58;3.00;;;3.00;;
7879;SDS011;3985;49.366;2.738;2023-05-10T00:48:26;4.00;;;2.33;;
7879;SDS011;3985;49.366;2.738;2023-05-10T00:50:54;4.00;;;4.00;;
7879;SDS011;3985;49.366;2.738;2023-05-10T00:53:23;3.25;;;1.75;;
7879;SDS011;3985;49.366;2.738;2023-05-10T00:55:50;4.00;;;4.00;;
7879;SDS011;3985;49.366;2.738;2023-05-10T00:58:17;4.75;;;3.25;;
7879;SDS011;3985;49.366;2.738;2023-05-10T01:00:45;2.75;;;2.75;;
7879;SDS011;3985;49.366;2.738;2023-05-10T01:03:13;6.00;;;4.00;;
7879;SDS011;3985;49.366;2.738;2023-05-10T01:05:41;2.33;;;2.33;;
7879;SDS011;3985;49.366;2.738;2023-05-10T01:08:08;4.00;;;3.00;;
7879;SDS011;3985;49.366;2.738;2023-05-10T01:10:36;4.00;;;4.00;;
7879;SDS011;3985;49.366;2.738;2023-05-10T01:13:04;4.67;;;4.67;;
7879;SDS011;3985;49.366;2.738;2023-05-10T01:15:31;4.33;;;3.33;;
7879;SDS011;3985;49.366;2.738;2023-05-10T01:17:58;5.67;;;4.00;;
7879;SDS011;3985;49.366;2.738;2023-05-10T01:20:31;6.00;;;4.67;;
7879;SDS011;3985;49.366;2.738;2023-05-10T01:23:07;5.00;;;5.00;;
7879;SDS011;3985;49.366;2.738;2023-05-10T01:25:50;3.33;;;3.33;;
7879;SDS011;3985;49.366;2.738;2023-05-10T01:28:47;3.00;;;3.00;;
7879;SDS011;3985;49.366;2.738;2023-05-10T01:32:01;4.00;;;4.00;;
7879;SDS011;3985;49.366;2.738;2023-05-10T01:34:44;4.67;;;3.00;;
7879;SDS011;3985;49.366;2.738;2023-05-10T01:37:20;5.67;;;3.33;;
7879;SDS011;3985;49.366;2.738;2023-05-10T01:39:54;5.00;;;5.00;;
7879;SDS011;3985;49.366;2.738;2023-05-10T01:42:25;3.67;;;3.67;;
7879;SDS011;3985;49.366;2.738;2023-05-10T01:44:58;2.33;;;2.33;;
7879;SDS011;3985;49.366;2.738;2023-05-10T01:47:31;4.00;;;2.00;;
7879;SDS011;3985;49.366;2.738;2023-05-10T01:50:02;4.00;;;4.00;;
7879;SDS011;3985;49.366;2.738;2023-05-10T01:52:32;3.00;;;3.00;;
7879;SDS011;3985;49.366;2.738;2023-05-10T01:55:04;2.00;;;2.00;;
7879;SDS011;3985;49.366;2.738;2023-05-10T01:57:33;4.00;;;4.00;;
7879;SDS011;3985;49.366;2.738;2023-05-10T02:00:02;2.00;;;2.00;;
7879;SDS011;3985;49.366;2.738;2023-05-10T02:02:32;1.00;;;1.00;;
7879;SDS011;3985;49.366;2.738;2023-05-10T02:05:05;2.67;;;2.67;;
7879;SDS011;3985;49.366;2.738;2023-05-10T02:07:33;2.00;;;2.00;;
7879;SDS011;3985;49.366;2.738;2023-05-10T02:10:02;2.33;;;2.33;;
7879;SDS011;3985;49.366;2.738;2023-05-10T02:12:31;5.00;;;3.00;;
7879;SDS011;3985;49.366;2.738;2023-05-10T02:15:01;4.00;;;2.00;;
7879;SDS011;3985;49.366;2.738;2023-05-10T02:17:32;2.33;;;0.67;;
7879;SDS011;3985;49.366;2.738;2023-05-10T02:19:59;3.00;;;3.00;;
7879;SDS011;3985;49.366;2.738;2023-05-10T02:22:28;5.00;;;3.00;;
7879;SDS011;3985;49.366;2.738;2023-05-10T02:24:57;3.00;;;3.00;;
7879;SDS011;3985;49.366;2.738;2023-05-10T02:27:26;3.00;;;3.00;;
7879;SDS011;3985;49.366;2.738;2023-05-10T02:29:55;3.00;;;3.00;;
7879;SDS011;3985;49.366;2.738;2023-05-10T02:32:23;2.00;;;2.00;;
7879;SDS011;3985;49.366;2.738;2023-05-10T02:34:53;3.33;;;3.33;;
7879;SDS011;3985;49.366;2.738;2023-05-10T02:37:21;2.00;;;2.00;;
7879;SDS011;3985;49.366;2.738;2023-05-10T02:39:49;2.00;;;2.00;;
7879;SDS011;3985;49.366;2.738;2023-05-10T02:42:17;2.00;;;2.00;;
7879;SDS011;3985;49.366;2.738;2023-05-10T02:44:45;3.00;;;3.00;;
7879;SDS011;3985;49.366;2.738;2023-05-10T02:47:17;2.00;;;2.00;;
7879;SDS011;3985;49.366;2.738;2023-05-10T02:49:45;5.00;;;2.00;;
7879;SDS011;3985;49.366;2.738;2023-05-10T02:52:14;2.00;;;2.00;;
7879;SDS011;3985;49.366;2.738;2023-05-10T02:54:48;6.00;;;3.67;;
7879;SDS011;3985;49.366;2.738;2023-05-10T02:57:17;2.00;;;2.00;;
7879;SDS011;3985;49.366;2.738;2023-05-10T02:59:51;1.00;;;1.00;;
7879;SDS011;3985;49.366;2.738;2023-05-10T03:02:19;3.33;;;2.00;;
7879;SDS011;3985;49.366;2.738;2023-05-10T03:04:47;6.00;;;3.00;;
7879;SDS011;3985;49.366;2.738;2023-05-10T03:07:15;2.00;;;2.00;;
7879;SDS011;3985;49.366;2.738;2023-05-10T03:09:46;2.33;;;2.33;;
7879;SDS011;3985;49.366;2.738;2023-05-10T03:12:14;4.50;;;3.00;;
7879;SDS011;3985;49.366;2.738;2023-05-10T03:14:49;3.00;;;2.00;;
7879;SDS011;3985;49.366;2.738;2023-05-10T03:17:23;2.00;;;2.00;;
7879;SDS011;3985;49.366;2.738;2023-05-10T03:19:53;2.00;;;2.00;;
7879;SDS011;3985;49.366;2.738;2023-05-10T03:22:23;1.00;;;1.00;;
7879;SDS011;3985;49.366;2.738;2023-05-10T03:24:55;1.00;;;1.00;;
7879;SDS011;3985;49.366;2.738;2023-05-10T03:27:23;2.33;;;2.33;;
7879;SDS011;3985;49.366;2.738;2023-05-10T03:29:52;3.00;;;3.00;;
7879;SDS011;3985;49.366;2.738;2023-05-10T03:32:20;2.00;;;2.00;;
7879;SDS011;3985;49.366;2.738;2023-05-10T03:34:48;3.00;;;3.00;;
7879;SDS011;3985;49.366;2.738;2023-05-10T03:37:15;4.00;;;2.00;;
7879;SDS011;3985;49.366;2.738;2023-05-10T03:39:44;2.25;;;1.50;;
7879;SDS011;3985;49.366;2.738;2023-05-10T03:42:11;3.00;;;3.00;;
7879;SDS011;3985;49.366;2.738;2023-05-10T03:44:38;3.00;;;2.00;;
7879;SDS011;3985;49.366;2.738;2023-05-10T03:47:06;4.75;;;3.00;;
7879;SDS011;3985;49.366;2.738;2023-05-10T03:49:33;2.00;;;2.00;;
7879;SDS011;3985;49.366;2.738;2023-05-10T03:52:00;2.00;;;2.00;;
7879;SDS011;3985;49.366;2.738;2023-05-10T03:54:27;3.00;;;2.00;;
7879;SDS011;3985;49.366;2.738;2023-05-10T03:56:58;4.75;;;3.50;;
7879;SDS011;3985;49.366;2.738;2023-05-10T03:59:28;3.00;;;3.00;;
7879;SDS011;3985;49.366;2.738;2023-05-10T04:02:00;2.50;;;2.50;;
7879;SDS011;3985;49.366;2.738;2023-05-10T04:04:33;2.50;;;2.50;;
7879;SDS011;3985;49.366;2.738;2023-05-10T04:07:00;2.00;;;2.00;;
7879;SDS011;3985;49.366;2.738;2023-05-10T04:09:28;2.00;;;2.00;;
7879;SDS011;3985;49.366;2.738;2023-05-10T04:11:55;4.75;;;2.25;;
7879;SDS011;3985;49.366;2.738;2023-05-10T04:14:23;1.50;;;1.50;;
7879;SDS011;3985;49.366;2.738;2023-05-10T04:16:51;2.50;;;0.00;;
7879;SDS011;3985;49.366;2.738;2023-05-10T04:19:18;1.00;;;1.00;;
7879;SDS011;3985;49.366;2.738;2023-05-10T04:21:45;1.00;;;1.00;;
7879;SDS011;3985;49.366;2.738;2023-05-10T04:24:12;3.00;;;2.00;;
7879;SDS011;3985;49.366;2.738;2023-05-10T04:26:39;2.25;;;2.00;;
7879;SDS011;3985;49.366;2.738;2023-05-10T04:29:07;4.75;;;4.75;;
7879;SDS011;3985;49.366;2.738;2023-05-10T04:31:35;2.25;;;2.25;;
7879;SDS011;3985;49.366;2.738;2023-05-10T04:34:02;4.75;;;1.75;;
7879;SDS011;3985;49.366;2.738;2023-05-10T04:36:30;1.75;;;0.25;;
7879;SDS011;3985;49.366;2.738;2023-05-10T04:38:57;3.50;;;2.00;;
7879;SDS011;3985;49.366;2.738;2023-05-10T04:41:24;2.75;;;2.75;;
7879;SDS011;3985;49.366;2.738;2023-05-10T04:43:52;1.50;;;1.50;;
7879;SDS011;3985;49.366;2.738;2023-05-10T04:46:19;2.00;;;1.25;;
7879;SDS011;3985;49.366;2.738;2023-05-10T04:48:48;1.00;;;1.00;;
7879;SDS011;3985;49.366;2.738;2023-05-10T04:51:15;2.00;;;2.00;;
7879;SDS011;3985;49.366;2.738;2023-05-10T04:53:42;2.00;;;2.00;;
7879;SDS011;3985;49.366;2.738;2023-05-10T04:56:09;1.00;;;1.00;;
7879;SDS011;3985;49.366;2.738;2023-05-10T04:58:36;2.00;;;2.00;;
7879;SDS011;3985;49.366;2.738;2023-05-10T05:01:07;1.00;;;1.00;;
7879;SDS011;3985;49.366;2.738;2023-05-10T05:03:35;1.50;;;1.50;;
7879;SDS011;3985;49.366;2.738;2023-05-10T05:06:04;1.00;;;1.00;;
7879;SDS011;3985;49.366;2.738;2023-05-10T05:08:32;1.25;;;1.00;;
7879;SDS011;3985;49.366;2.738;2023-05-10T05:10:59;3.50;;;1.00;;
7879;SDS011;3985;49.366;2.738;2023-05-10T05:13:26;1.00;;;1.00;;
7879;SDS011;3985;49.366;2.738;2023-05-10T05:15:53;1.00;;;1.00;;
7879;SDS011;3985;49.366;2.738;2023-05-10T05:18:21;1.00;;;1.00;;
7879;SDS011;3985;49.366;2.738;2023-05-10T05:20:48;0.25;;;0.25;;
7879;SDS011;3985;49.366;2.738;2023-05-10T05:23:17;2.25;;;2.25;;
7879;SDS011;3985;49.366;2.738;2023-05-10T05:25:45;1.00;;;1.00;;
7879;SDS011;3985;49.366;2.738;2023-05-10T05:28:12;2.00;;;2.00;;
7879;SDS011;3985;49.366;2.738;2023-05-10T05:30:40;1.00;;;0.50;;
7879;SDS011;3985;49.366;2.738;2023-05-10T05:33:07;0.00;;;0.00;;
7879;SDS011;3985;49.366;2.738;2023-05-10T05:35:34;5.50;;;1.75;;
7879;SDS011;3985;49.366;2.738;2023-05-10T05:38:01;1.00;;;1.00;;
7879;SDS011;3985;49.366;2.738;2023-05-10T05:40:30;1.50;;;1.00;;
7879;SDS011;3985;49.366;2.738;2023-05-10T05:42:57;3.00;;;1.00;;
7879;SDS011;3985;49.366;2.738;2023-05-10T05:45:32;3.00;;;1.00;;
7879;SDS011;3985;49.366;2.738;2023-05-10T05:47:59;3.00;;;2.00;;
7879;SDS011;3985;49.366;2.738;2023-05-10T05:50:26;3.75;;;2.00;;
7879;SDS011;3985;49.366;2.738;2023-05-10T05:52:53;4.00;;;2.75;;
7879;SDS011;3985;49.366;2.738;2023-05-10T05:55:22;2.00;;;2.00;;
7879;SDS011;3985;49.366;2.738;2023-05-10T05:57:52;1.75;;;1.75;;
7879;SDS011;3985;49.366;2.738;2023-05-10T06:00:19;3.25;;;2.00;;
7879;SDS011;3985;49.366;2.738;2023-05-10T06:02:47;1.00;;;1.00;;
7879;SDS011;3985;49.366;2.738;2023-05-10T06:05:14;2.67;;;2.67;;
7879;SDS011;3985;49.366;2.738;2023-05-10T06:07:42;2.00;;;2.00;;
7879;SDS011;3985;49.366;2.738;2023-05-10T06:10:09;2.00;;;2.00;;
7879;SDS011;3985;49.366;2.738;2023-05-10T06:12:36;2.67;;;2.67;;
7879;SDS011;3985;49.366;2.738;2023-05-10T06:15:05;2.00;;;2.00;;
7879;SDS011;3985;49.366;2.738;2023-05-10T06:17:33;1.67;;;1.67;;
7879;SDS011;3985;49.366;2.738;2023-05-10T06:20:01;6.00;;;3.00;;
7879;SDS011;3985;49.366;2.738;2023-05-10T06:22:28;2.67;;;2.67;;
7879;SDS011;3985;49.366;2.738;2023-05-10T06:24:55;3.00;;;2.00;;
7879;SDS011;3985;49.366;2.738;2023-05-10T06:27:24;1.00;;;1.00;;
7879;SDS011;3985;49.366;2.738;2023-05-10T06:29:52;2.33;;;2.33;;
7879;SDS011;3985;49.366;2.738;2023-05-10T06:32:20;0.67;;;0.67;;
7879;SDS011;3985;49.366;2.738;2023-05-10T06:34:47;3.00;;;3.00;;
7879;SDS011;3985;49.366;2.738;2023-05-10T06:37:14;3.33;;;3.00;;
7879;SDS011;3985;49.366;2.738;2023-05-10T06:39:42;2.00;;;2.00;;
7879;SDS011;3985;49.366;2.738;2023-05-10T06:42:09;2.00;;;2.00;;
7879;SDS011;3985;49.366;2.738;2023-05-10T06:44:36;5.00;;;3.00;;
7879;SDS011;3985;49.366;2.738;2023-05-10T06:47:03;3.33;;;3.00;;
7879;SDS011;3985;49.366;2.738;2023-05-10T06:49:32;2.33;;;2.33;;
7879;SDS011;3985;49.366;2.738;2023-05-10T06:51:59;2.75;;;2.75;;
7879;SDS011;3985;49.366;2.738;2023-05-10T06:54:26;5.00;;;3.00;;
7879;SDS011;3985;49.366;2.738;2023-05-10T06:56:53;5.33;;;3.00;;
7879;SDS011;3985;49.366;2.738;2023-05-10T06:59:20;2.00;;;2.00;;
7879;SDS011;3985;49.366;2.738;2023-05-10T07:01:49;1.00;;;1.00;;
7879;SDS011;3985;49.366;2.738;2023-05-10T07:04:16;3.67;;;2.00;;
7879;SDS011;3985;49.366;2.738;2023-05-10T07:06:45;2.00;;;2.00;;
7879;SDS011;3985;49.366;2.738;2023-05-10T07:09:12;2.00;;;2.00;;
7879;SDS011;3985;49.366;2.738;2023-05-10T07:11:39;1.00;;;1.00;;
7879;SDS011;3985;49.366;2.738;2023-05-10T07:14:06;2.00;;;2.00;;
7879;SDS011;3985;49.366;2.738;2023-05-10T07:16:34;3.00;;;3.00;;
7879;SDS011;3985;49.366;2.738;2023-05-10T07:19:01;2.00;;;2.00;;
7879;SDS011;3985;49.366;2.738;2023-05-10T07:21:30;2.67;;;2.67;;
7879;SDS011;3985;49.366;2.738;2023-05-10T07:23:58;2.00;;;2.00;;
7879;SDS011;3985;49.366;2.738;2023-05-10T07:26:26;3.00;;;3.00;;
7879;SDS011;3985;49.366;2.738;2023-05-10T07:28:54;2.00;;;2.00;;
7879;SDS011;3985;49.366;2.738;2023-05-10T07:31:21;2.00;;;2.00;;
7879;SDS011;3985;49.366;2.738;2023-05-10T07:33:48;2.33;;;2.33;;
7879;SDS011;3985;49.366;2.738;2023-05-10T07:36:15;10.33;;;8.67;;
7879;SDS011;3985;49.366;2.738;2023-05-10T07:38:42;4.00;;;4.00;;
7879;SDS011;3985;49.366;2.738;2023-05-10T07:41:11;2.33;;;2.33;;
7879;SDS011;3985;49.366;2.738;2023-05-10T07:43:38;3.00;;;3.00;;
7879;SDS011;3985;49.366;2.738;2023-05-10T07:46:05;2.00;;;2.00;;
7879;SDS011;3985;49.366;2.738;2023-05-10T07:48:35;3.00;;;3.00;;
7879;SDS011;3985;49.366;2.738;2023-05-10T07:51:02;3.00;;;3.00;;
7879;SDS011;3985;49.366;2.738;2023-05-10T07:53:31;3.00;;;3.00;;
7879;SDS011;3985;49.366;2.738;2023-05-10T07:55:58;2.00;;;2.00;;
7879;SDS011;3985;49.366;2.738;2023-05-10T07:58:27;3.00;;;2.00;;
7879;SDS011;3985;49.366;2.738;2023-05-10T08:00:54;4.00;;;4.00;;
7879;SDS011;3985;49.366;2.738;2023-05-10T08:03:21;2.75;;;2.50;;
7879;SDS011;3985;49.366;2.738;2023-05-10T08:05:48;2.75;;;2.75;;
7879;SDS011;3985;49.366;2.738;2023-05-10T08:08:16;1.50;;;1.50;;
7879;SDS011;3985;49.366;2.738;2023-05-10T08:10:43;3.00;;;3.00;;
7879;SDS011;3985;49.366;2.738;2023-05-10T08:13:10;2.50;;;2.50;;
7879;SDS011;3985;49.366;2.738;2023-05-10T08:15:40;3.00;;;2.50;;
7879;SDS011;3985;49.366;2.738;2023-05-10T08:18:07;2.50;;;2.00;;
7879;SDS011;3985;49.366;2.738;2023-05-10T08:20:34;5.00;;;5.00;;
7879;SDS011;3985;49.366;2.738;2023-05-10T08:23:02;4.00;;;3.00;;
7879;SDS011;3985;49.366;2.738;2023-05-10T08:25:29;4.00;;;4.00;;
7879;SDS011;3985;49.366;2.738;2023-05-10T08:27:56;14.67;;;12.67;;
7879;SDS011;3985;49.366;2.738;2023-05-10T08:30:23;15.00;;;13.00;;
7879;SDS011;3985;49.366;2.738;2023-05-10T08:32:52;17.33;;;15.00;;
7879;SDS011;3985;49.366;2.738;2023-05-10T08:35:19;18.25;;;18.00;;
7879;SDS011;3985;49.366;2.738;2023-05-10T08:37:46;21.00;;;15.50;;
7879;SDS011;3985;49.366;2.738;2023-05-10T08:40:13;11.67;;;10.00;;
7879;SDS011;3985;49.366;2.738;2023-05-10T08:42:43;10.67;;;10.67;;
7879;SDS011;3985;49.366;2.738;2023-05-10T08:45:14;5.67;;;5.67;;
7879;SDS011;3985;49.366;2.738;2023-05-10T08:47:41;5.33;;;5.00;;
7879;SDS011;3985;49.366;2.738;2023-05-10T08:50:10;1.00;;;1.00;;
7879;SDS011;3985;49.366;2.738;2023-05-10T08:52:38;4.67;;;4.33;;
7879;SDS011;3985;49.366;2.738;2023-05-10T08:55:07;4.00;;;4.00;;
7879;SDS011;3985;49.366;2.738;2023-05-10T08:57:35;3.00;;;3.00;;
7879;SDS011;3985;49.366;2.738;2023-05-10T09:00:02;4.75;;;4.00;;
7879;SDS011;3985;49.366;2.738;2023-05-10T09:02:30;5.75;;;3.00;;
7879;SDS011;3985;49.366;2.738;2023-05-10T09:04:58;6.75;;;6.75;;
7879;SDS011;3985;49.366;2.738;2023-05-10T09:07:26;9.67;;;9.67;;
7879;SDS011;3985;49.366;2.738;2023-05-10T09:09:54;16.67;;;16.67;;
7879;SDS011;3985;49.366;2.738;2023-05-10T09:12:21;16.33;;;14.33;;
7879;SDS011;3985;49.366;2.738;2023-05-10T09:14:48;13.00;;;10.00;;
7879;SDS011;3985;49.366;2.738;2023-05-10T09:17:17;10.25;;;10.25;;
7879;SDS011;3985;49.366;2.738;2023-05-10T09:19:44;8.25;;;7.00;;
7879;SDS011;3985;49.366;2.738;2023-05-10T09:22:12;7.25;;;7.25;;
7879;SDS011;3985;49.366;2.738;2023-05-10T09:24:40;7.75;;;5.75;;
7879;SDS011;3985;49.366;2.738;2023-05-10T09:27:10;7.00;;;7.00;;
7879;SDS011;3985;49.366;2.738;2023-05-10T09:29:41;3.25;;;3.25;;
7879;SDS011;3985;49.366;2.738;2023-05-10T09:32:08;6.50;;;5.75;;
7879;SDS011;3985;49.366;2.738;2023-05-10T09:34:36;6.25;;;6.25;;
7879;SDS011;3985;49.366;2.738;2023-05-10T09:37:05;7.00;;;5.75;;
7879;SDS011;3985;49.366;2.738;2023-05-10T09:39:33;4.25;;;4.25;;
7879;SDS011;3985;49.366;2.738;2023-05-10T09:42:03;6.00;;;6.00;;
7879;SDS011;3985;49.366;2.738;2023-05-10T09:44:31;7.25;;;4.25;;
7879;SDS011;3985;49.366;2.738;2023-05-10T09:46:59;9.00;;;9.00;;
7879;SDS011;3985;49.366;2.738;2023-05-10T09:49:26;7.00;;;7.00;;
7879;SDS011;3985;49.366;2.738;2023-05-10T09:51:59;8.50;;;5.25;;
7879;SDS011;3985;49.366;2.738;2023-05-10T09:54:28;10.00;;;10.00;;
7879;SDS011;3985;49.366;2.738;2023-05-10T09:56:55;10.00;;;6.67;;
7879;SDS011;3985;49.366;2.738;2023-05-10T09:59:25;11.00;;;8.25;;
7879;SDS011;3985;49.366;2.738;2023-05-10T10:01:55;18.67;;;16.67;;
7879;SDS011;3985;49.366;2.738;2023-05-10T10:04:23;22.67;;;19.00;;
7879;SDS011;3985;49.366;2.738;2023-05-10T10:07:00;19.00;;;19.00;;
7879;SDS011;3985;49.366;2.738;2023-05-10T10:09:28;13.33;;;13.33;;
7879;SDS011;3985;49.366;2.738;2023-05-10T10:11:55;19.00;;;18.67;;
7879;SDS011;3985;49.366;2.738;2023-05-10T10:14:23;24.00;;;22.00;;
7879;SDS011;3985;49.366;2.738;2023-05-10T10:16:52;25.00;;;21.00;;
7879;SDS011;3985;49.366;2.738;2023-05-10T10:19:20;18.33;;;16.67;;
7879;SDS011;3985;49.366;2.738;2023-05-10T10:21:47;21.00;;;21.00;;
7879;SDS011;3985;49.366;2.738;2023-05-10T10:24:15;20.33;;;15.67;;
7879;SDS011;3985;49.366;2.738;2023-05-10T10:26:42;18.00;;;17.33;;
7879;SDS011;3985;49.366;2.738;2023-05-10T10:29:14;22.67;;;19.67;;
7879;SDS011;3985;49.366;2.738;2023-05-10T10:31:49;19.67;;;15.33;;
7879;SDS011;3985;49.366;2.738;2023-05-10T10:34:22;11.25;;;10.50;;
7879;SDS011;3985;49.366;2.738;2023-05-10T10:36:53;16.33;;;16.33;;
7879;SDS011;3985;49.366;2.738;2023-05-10T10:39:21;10.25;;;8.25;;
7879;SDS011;3985;49.366;2.738;2023-05-10T10:41:50;10.25;;;9.75;;
7879;SDS011;3985;49.366;2.738;2023-05-10T10:44:25;9.00;;;9.00;;
7879;SDS011;3985;49.366;2.738;2023-05-10T10:47:02;10.75;;;10.50;;
7879;SDS011;3985;49.366;2.738;2023-05-10T10:49:33;8.25;;;7.50;;
7879;SDS011;3985;49.366;2.738;2023-05-10T10:52:14;9.75;;;7.00;;
7879;SDS011;3985;49.366;2.738;2023-05-10T10:54:51;8.00;;;7.50;;
7879;SDS011;3985;49.366;2.738;2023-05-10T10:57:20;8.50;;;7.50;;
7879;SDS011;3985;49.366;2.738;2023-05-10T10:59:48;8.00;;;8.00;;
7879;SDS011;3985;49.366;2.738;2023-05-10T11:08:12;6.25;;;6.25;;
7879;SDS011;3985;49.366;2.738;2023-05-10T11:11:03;4.50;;;4.50;;
7879;SDS011;3985;49.366;2.738;2023-05-10T11:13:33;4.75;;;4.75;;
7879;SDS011;3985;49.366;2.738;2023-05-10T11:16:10;4.25;;;4.25;;
7879;SDS011;3985;49.366;2.738;2023-05-10T11:18:40;4.00;;;4.00;;
7879;SDS011;3985;49.366;2.738;2023-05-10T11:21:18;2.75;;;2.75;;
7879;SDS011;3985;49.366;2.738;2023-05-10T11:23:48;3.00;;;3.00;;
7879;SDS011;3985;49.366;2.738;2023-05-10T11:26:16;1.00;;;1.00;;
7879;SDS011;3985;49.366;2.738;2023-05-10T11:28:48;4.00;;;4.00;;
7879;SDS011;3985;49.366;2.738;2023-05-10T11:31:16;4.00;;;4.00;;
7879;SDS011;3985;49.366;2.738;2023-05-10T11:33:46;3.75;;;3.75;;
7879;SDS011;3985;49.366;2.738;2023-05-10T11:36:14;5.25;;;5.25;;
7879;SDS011;3985;49.366;2.738;2023-05-10T11:38:43;4.00;;;4.00;;
7879;SDS011;3985;49.366;2.738;2023-05-10T11:41:10;3.00;;;3.00;;
7879;SDS011;3985;49.366;2.738;2023-05-10T11:43:38;6.00;;;6.00;;
7879;SDS011;3985;49.366;2.738;2023-05-10T11:46:06;4.75;;;4.75;;
7879;SDS011;3985;49.366;2.738;2023-05-10T11:48:33;7.00;;;5.00;;
7879;SDS011;3985;49.366;2.738;2023-05-10T11:51:05;8.50;;;7.25;;
7879;SDS011;3985;49.366;2.738;2023-05-10T11:53:33;6.25;;;5.00;;
7879;SDS011;3985;49.366;2.738;2023-05-10T11:56:03;4.75;;;4.75;;
7879;SDS011;3985;49.366;2.738;2023-05-10T11:58:31;6.50;;;5.00;;
7879;SDS011;3985;49.366;2.738;2023-05-10T12:00:59;6.50;;;6.50;;
7879;SDS011;3985;49.366;2.738;2023-05-10T12:03:27;5.00;;;5.00;;
7879;SDS011;3985;49.366;2.738;2023-05-10T12:05:54;4.25;;;4.25;;
7879;SDS011;3985;49.366;2.738;2023-05-10T12:08:24;6.00;;;6.00;;
7879;SDS011;3985;49.366;2.738;2023-05-10T12:10:53;3.25;;;3.25;;
7879;SDS011;3985;49.366;2.738;2023-05-10T12:13:30;4.75;;;4.75;;
7879;SDS011;3985;49.366;2.738;2023-05-10T12:15:58;3.25;;;3.25;;
7879;SDS011;3985;49.366;2.738;2023-05-10T12:18:25;8.50;;;5.00;;
7879;SDS011;3985;49.366;2.738;2023-05-10T12:20:53;8.50;;;7.00;;
7879;SDS011;3985;49.366;2.738;2023-05-10T12:23:20;7.25;;;5.25;;
7879;SDS011;3985;49.366;2.738;2023-05-10T12:25:48;5.50;;;5.50;;
7879;SDS011;3985;49.366;2.738;2023-05-10T12:28:18;6.00;;;6.00;;
7879;SDS011;3985;49.366;2.738;2023-05-10T12:30:46;5.00;;;5.00;;
7879;SDS011;3985;49.366;2.738;2023-05-10T12:33:13;8.00;;;8.00;;
7879;SDS011;3985;49.366;2.738;2023-05-10T12:35:45;6.50;;;6.50;;
7879;SDS011;3985;49.366;2.738;2023-05-10T12:38:25;7.75;;;7.00;;
7879;SDS011;3985;49.366;2.738;2023-05-10T12:40:57;6.00;;;4.00;;
7879;SDS011;3985;49.366;2.738;2023-05-10T12:43:25;9.25;;;7.00;;
7879;SDS011;3985;49.366;2.738;2023-05-10T12:45:54;8.75;;;8.75;;
7879;SDS011;3985;49.366;2.738;2023-05-10T12:48:22;10.50;;;10.00;;
7879;SDS011;3985;49.366;2.738;2023-05-10T12:50:50;9.00;;;7.25;;
7879;SDS011;3985;49.366;2.738;2023-05-10T12:53:17;7.25;;;7.25;;
7879;SDS011;3985;49.366;2.738;2023-05-10T12:55:44;10.00;;;10.00;;
7879;SDS011;3985;49.366;2.738;2023-05-10T12:58:13;8.25;;;8.25;;
7879;SDS011;3985;49.366;2.738;2023-05-10T13:00:40;6.00;;;6.00;;
7879;SDS011;3985;49.366;2.738;2023-05-10T13:03:08;6.50;;;5.75;;
7879;SDS011;3985;49.366;2.738;2023-05-10T13:05:36;10.50;;;7.00;;
7879;SDS011;3985;49.366;2.738;2023-05-10T13:08:03;9.25;;;8.00;;
7879;SDS011;3985;49.366;2.738;2023-05-10T13:10:30;8.25;;;7.50;;
7879;SDS011;3985;49.366;2.738;2023-05-10T13:12:59;6.00;;;6.00;;
7879;SDS011;3985;49.366;2.738;2023-05-10T13:15:27;10.25;;;10.25;;
7879;SDS011;3985;49.366;2.738;2023-05-10T13:17:54;6.50;;;6.50;;
7879;SDS011;3985;49.366;2.738;2023-05-10T13:20:22;6.50;;;6.50;;
7879;SDS011;3985;49.366;2.738;2023-05-10T13:22:49;9.00;;;7.00;;
7879;SDS011;3985;49.366;2.738;2023-05-10T13:25:16;3.75;;;2.75;;
7879;SDS011;3985;49.366;2.738;2023-05-10T13:27:43;5.50;;;5.50;;
7879;SDS011;3985;49.366;2.738;2023-05-10T13:30:11;6.25;;;6.00;;
7879;SDS011;3985;49.366;2.738;2023-05-10T13:32:39;10.50;;;7.25;;
7879;SDS011;3985;49.366;2.738;2023-05-10T13:35:07;8.25;;;7.25;;
7879;SDS011;3985;49.366;2.738;2023-05-10T13:37:34;7.25;;;7.00;;
7879;SDS011;3985;49.366;2.738;2023-05-10T13:40:02;9.00;;;7.75;;
7879;SDS011;3985;49.366;2.738;2023-05-10T13:42:31;6.00;;;6.00;;
7879;SDS011;3985;49.366;2.738;2023-05-10T13:44:59;7.00;;;7.00;;
7879;SDS011;3985;49.366;2.738;2023-05-10T13:47:26;10.00;;;7.00;;
7879;SDS011;3985;49.366;2.738;2023-05-10T13:49:55;5.00;;;5.00;;
7879;SDS011;3985;49.366;2.738;2023-05-10T13:52:22;4.50;;;4.50;;
7879;SDS011;3985;49.366;2.738;2023-05-10T13:54:49;6.00;;;6.00;;
7879;SDS011;3985;49.366;2.738;2023-05-10T13:57:19;6.00;;;3.50;;
7879;SDS011;3985;49.366;2.738;2023-05-10T13:59:47;9.75;;;6.50;;
7879;SDS011;3985;49.366;2.738;2023-05-10T14:02:14;6.00;;;6.00;;
7879;SDS011;3985;49.366;2.738;2023-05-10T14:04:41;10.00;;;6.50;;
7879;SDS011;3985;49.366;2.738;2023-05-10T14:07:10;8.25;;;7.00;;
7879;SDS011;3985;49.366;2.738;2023-05-10T14:09:37;6.25;;;6.00;;
7879;SDS011;3985;49.366;2.738;2023-05-10T14:12:04;8.00;;;6.50;;
7879;SDS011;3985;49.366;2.738;2023-05-10T14:14:31;7.00;;;7.00;;
7879;SDS011;3985;49.366;2.738;2023-05-10T14:16:58;4.75;;;3.00;;
7879;SDS011;3985;49.366;2.738;2023-05-10T14:19:26;7.75;;;4.00;;
7879;SDS011;3985;49.366;2.738;2023-05-10T14:21:55;6.00;;;6.00;;
7879;SDS011;3985;49.366;2.738;2023-05-10T14:24:24;5.00;;;5.00;;
7879;SDS011;3985;49.366;2.738;2023-05-10T14:26:51;6.00;;;6.00;;
7879;SDS011;3985;49.366;2.738;2023-05-10T14:29:19;6.50;;;5.25;;
7879;SDS011;3985;49.366;2.738;2023-05-10T14:31:46;7.75;;;6.50;;
7879;SDS011;3985;49.366;2.738;2023-05-10T14:34:13;6.00;;;6.00;;
7879;SDS011;3985;49.366;2.738;2023-05-10T14:36:40;7.00;;;4.50;;
7879;SDS011;3985;49.366;2.738;2023-05-10T14:39:08;6.25;;;6.25;;
7879;SDS011;3985;49.366;2.738;2023-05-10T14:41:39;8.50;;;6.75;;
7879;SDS011;3985;49.366;2.738;2023-05-10T14:44:07;6.25;;;6.00;;
7879;SDS011;3985;49.366;2.738;2023-05-10T14:46:35;5.00;;;5.00;;
7879;SDS011;3985;49.366;2.738;2023-05-10T14:49:02;5.00;;;5.00;;
7879;SDS011;3985;49.366;2.738;2023-05-10T14:51:29;5.75;;;5.25;;
7879;SDS011;3985;49.366;2.738;2023-05-10T14:53:57;5.00;;;5.00;;
7879;SDS011;3985;49.366;2.738;2023-05-10T14:56:24;8.25;;;4.00;;
7879;SDS011;3985;49.366;2.738;2023-05-10T14:58:54;5.00;;;5.00;;
7879;SDS011;3985;49.366;2.738;2023-05-10T15:01:21;4.40;;;4.40;;
7879;SDS011;3985;49.366;2.738;2023-05-10T15:03:48;5.60;;;3.60;;
7879;SDS011;3985;49.366;2.738;2023-05-10T15:06:15;5.20;;;3.60;;
7879;SDS011;3985;49.366;2.738;2023-05-10T15:08:43;4.00;;;4.00;;
7879;SDS011;3985;49.366;2.738;2023-05-10T15:11:10;3.00;;;3.00;;
7879;SDS011;3985;49.366;2.738;2023-05-10T15:13:37;4.00;;;3.00;;
7879;SDS011;3985;49.366;2.738;2023-05-10T15:16:06;1.60;;;1.40;;
7879;SDS011;3985;49.366;2.738;2023-05-10T15:18:33;3.40;;;2.80;;
7879;SDS011;3985;49.366;2.738;2023-05-10T15:21:00;3.00;;;3.00;;
7879;SDS011;3985;49.366;2.738;2023-05-10T15:23:27;1.00;;;1.00;;
7879;SDS011;3985;49.366;2.738;2023-05-10T15:25:54;5.60;;;2.00;;
7879;SDS011;3985;49.366;2.738;2023-05-10T15:28:22;3.20;;;1.80;;
7879;SDS011;3985;49.366;2.738;2023-05-10T15:30:49;2.20;;;2.20;;
7879;SDS011;3985;49.366;2.738;2023-05-10T15:33:18;2.80;;;2.80;;
7879;SDS011;3985;49.366;2.738;2023-05-10T15:35:45;2.00;;;2.00;;
7879;SDS011;3985;49.366;2.738;2023-05-10T15:38:12;3.60;;;2.00;;
7879;SDS011;3985;49.366;2.738;2023-05-10T15:40:39;4.00;;;2.00;;
7879;SDS011;3985;49.366;2.738;2023-05-10T15:43:07;3.20;;;2.80;;
7879;SDS011;3985;49.366;2.738;2023-05-10T15:45:36;2.40;;;2.20;;
7879;SDS011;3985;49.366;2.738;2023-05-10T15:48:03;2.20;;;2.20;;
7879;SDS011;3985;49.366;2.738;2023-05-10T15:50:32;4.00;;;2.00;;
7879;SDS011;3985;49.366;2.738;2023-05-10T15:52:59;2.80;;;2.80;;
7879;SDS011;3985;49.366;2.738;2023-05-10T15:55:27;2.60;;;2.60;;
7879;SDS011;3985;49.366;2.738;2023-05-10T15:57:54;2.40;;;2.40;;
7879;SDS011;3985;49.366;2.738;2023-05-10T16:00:21;2.00;;;2.00;;
7879;SDS011;3985;49.366;2.738;2023-05-10T16:02:50;3.00;;;3.00;;